createdAt,value
2022-11-26T00:00:42.226Z,73.50
2022-11-26T00:03:27.346Z,66.38
2022-11-26T00:05:57.405Z,66.97
2022-11-26T00:08:35.719Z,69.88
2022-11-26T00:11:03.147Z,67.07
2022-11-26T00:13:31.468Z,59.53
2022-11-26T00:15:58.645Z,65.68
2022-11-26T00:18:28.971Z,64.55
2022-11-26T00:21:01.269Z,65.70
2022-11-26T00:23:29.011Z,73.15
2022-11-26T00:25:59.357Z,70.35
2022-11-26T00:28:30.054Z,77.97
2022-11-26T00:30:59.789Z,69.60
2022-11-26T00:33:28.255Z,64.20
2022-11-26T00:36:02.473Z,61.00
2022-11-26T00:38:30.748Z,65.97
2022-11-26T00:40:58.858Z,62.90
2022-11-26T00:43:26.412Z,69.35
2022-11-26T00:45:53.611Z,60.47
2022-11-26T00:48:21.094Z,71.22
2022-11-26T00:50:51.085Z,59.17
2022-11-26T00:53:22.510Z,60.10
2022-11-26T00:55:50.823Z,69.25
2022-11-26T00:58:30.173Z,69.30
2022-11-26T01:00:59.362Z,68.15
2022-11-26T01:03:27.252Z,70.30
2022-11-26T01:05:58.109Z,62.67
2022-11-26T01:08:33.035Z,63.40
2022-11-26T01:11:02.048Z,69.93
2022-11-26T01:13:30.625Z,59.92
2022-11-26T01:16:00.001Z,71.05
2022-11-26T01:18:28.772Z,67.40
2022-11-26T01:20:55.920Z,63.00
2022-11-26T01:23:23.416Z,67.55
2022-11-26T01:25:50.624Z,66.47
2022-11-26T01:28:19.815Z,70.85
2022-11-26T01:30:47.226Z,60.35
2022-11-26T01:33:14.817Z,71.72
2022-11-26T01:35:42.052Z,64.57
2022-11-26T01:38:15.660Z,73.28
2022-11-26T01:41:16.913Z,75.65
2022-11-26T01:43:44.498Z,62.10
2022-11-26T01:46:22.438Z,74.35
2022-11-26T01:48:50.554Z,76.40
2022-11-26T01:51:25.113Z,77.70
2022-11-26T01:53:59.756Z,71.60
2022-11-26T01:56:39.190Z,69.85
2022-11-26T01:59:12.697Z,77.18
2022-11-26T02:01:40.210Z,67.57
2022-11-26T02:04:27.745Z,80.97
2022-11-26T02:06:56.465Z,85.22
2022-11-26T02:09:26.175Z,77.22
2022-11-26T02:11:53.664Z,78.32
2022-11-26T02:14:28.630Z,80.32
2022-11-26T02:17:18.067Z,76.32
2022-11-26T02:20:19.235Z,81.18
2022-11-26T02:22:49.545Z,80.55
2022-11-26T02:25:41.960Z,80.20
2022-11-26T02:28:55.908Z,78.05
2022-11-26T02:31:53.453Z,83.38
2022-11-26T02:34:44.142Z,77.68
2022-11-26T02:37:20.018Z,84.20
2022-11-26T02:39:47.367Z,75.10
2022-11-26T02:42:32.644Z,75.45
2022-11-26T02:45:08.404Z,73.88
2022-11-26T02:47:39.993Z,84.17
2022-11-26T02:50:11.819Z,72.40
2022-11-26T02:52:42.694Z,76.25
2022-11-26T02:55:13.126Z,83.00
2022-11-26T02:57:52.381Z,75.47
2022-11-26T03:00:20.421Z,75.93
2022-11-26T03:03:02.070Z,84.60
2022-11-26T03:05:33.961Z,73.32
2022-11-26T03:08:02.864Z,73.28
2022-11-26T03:10:31.607Z,69.75
2022-11-26T03:12:59.664Z,72.20
2022-11-26T03:15:27.518Z,70.00
2022-11-26T03:17:55.086Z,78.00
2022-11-26T03:20:22.257Z,71.90
2022-11-26T03:22:49.829Z,72.38
2022-11-26T03:25:17.116Z,70.60
2022-11-26T03:27:44.926Z,65.53
2022-11-26T03:30:12.541Z,71.63
2022-11-26T03:32:40.052Z,64.90
2022-11-26T03:35:07.629Z,73.47
2022-11-26T03:37:35.542Z,69.38
2022-11-26T03:40:02.824Z,63.90
2022-11-26T03:42:30.298Z,62.88
2022-11-26T03:44:57.541Z,62.17
2022-11-26T03:47:25.292Z,66.07
2022-11-26T03:49:52.410Z,71.30
2022-11-26T03:52:20.575Z,70.85
2022-11-26T03:54:47.793Z,64.57
2022-11-26T03:57:15.251Z,70.03
2022-11-26T03:59:42.472Z,65.30
2022-11-26T04:02:09.937Z,63.97
2022-11-26T04:04:37.486Z,62.60
2022-11-26T04:07:05.285Z,61.00
2022-11-26T04:09:32.679Z,63.47
2022-11-26T04:12:00.248Z,58.60
2022-11-26T04:14:27.570Z,62.22
2022-11-26T04:16:55.057Z,57.95
2022-11-26T04:19:22.264Z,58.83
2022-11-26T04:21:49.805Z,57.95
2022-11-26T04:24:16.950Z,59.08
2022-11-26T04:26:44.452Z,57.72
2022-11-26T04:29:11.604Z,58.03
2022-11-26T04:31:39.211Z,56.85
2022-11-26T04:34:06.442Z,62.40
2022-11-26T04:36:33.980Z,58.80
2022-11-26T04:39:01.194Z,58.38
2022-11-26T04:41:28.752Z,56.60
2022-11-26T04:43:56.080Z,54.22
2022-11-26T04:46:23.706Z,60.50
2022-11-26T04:48:50.953Z,60.10
2022-11-26T04:51:18.480Z,63.83
2022-11-26T04:53:45.762Z,57.88
2022-11-26T04:56:13.191Z,63.55
2022-11-26T04:58:40.590Z,62.60
2022-11-26T05:01:08.225Z,63.60
2022-11-26T05:03:36.792Z,66.78
2022-11-26T05:06:04.592Z,56.20
2022-11-26T05:08:31.817Z,60.28
2022-11-26T05:11:01.400Z,48.38
2022-11-26T05:13:28.734Z,56.47
2022-11-26T05:15:56.177Z,54.25
2022-11-26T05:18:23.365Z,61.13
2022-11-26T05:20:50.837Z,51.38
2022-11-26T05:23:18.175Z,58.97
2022-11-26T05:25:45.653Z,60.25
2022-11-26T05:28:12.808Z,58.78
2022-11-26T05:30:40.672Z,61.75
2022-11-26T05:33:08.421Z,55.45
2022-11-26T05:35:37.401Z,61.53
2022-11-26T05:38:04.614Z,53.80
2022-11-26T05:40:32.370Z,57.20
2022-11-26T05:42:59.500Z,47.50
2022-11-26T05:45:27.339Z,54.45
2022-11-26T05:47:54.523Z,55.08
2022-11-26T05:50:22.032Z,55.25
2022-11-26T05:52:53.337Z,46.25
2022-11-26T05:55:21.005Z,47.95
2022-11-26T05:57:48.143Z,54.85
2022-11-26T06:00:16.020Z,58.10
2022-11-26T06:02:43.611Z,54.35
2022-11-26T06:05:11.932Z,57.33
2022-11-26T06:07:43.283Z,74.55
2022-11-26T06:10:13.663Z,79.63
2022-11-26T06:12:40.904Z,73.80
2022-11-26T06:15:08.926Z,87.03
2022-11-26T06:17:36.077Z,87.32
2022-11-26T06:20:04.747Z,93.57
2022-11-26T06:22:40.109Z,86.10
2022-11-26T06:25:09.247Z,86.93
2022-11-26T06:27:37.302Z,83.95
2022-11-26T06:30:05.799Z,93.45
2022-11-26T06:32:33.535Z,86.68
2022-11-26T06:35:01.000Z,102.85
2022-11-26T06:37:28.294Z,84.50
2022-11-26T06:39:55.700Z,88.28
2022-11-26T06:42:23.374Z,86.97
2022-11-26T06:44:51.163Z,83.90
2022-11-26T06:47:18.491Z,92.25
2022-11-26T06:49:46.001Z,96.60
2022-11-26T06:52:13.761Z,93.80
2022-11-26T06:54:41.384Z,91.90
2022-11-26T06:57:08.590Z,127.82
2022-11-26T06:59:36.186Z,134.07
2022-11-26T07:02:03.340Z,111.93
2022-11-26T07:04:30.978Z,108.97
2022-11-26T07:06:58.324Z,107.40
2022-11-26T07:09:25.777Z,125.20
2022-11-26T07:11:52.969Z,125.57
2022-11-26T07:14:22.431Z,108.65
2022-11-26T07:16:49.659Z,113.05
2022-11-26T07:19:17.191Z,122.80
2022-11-26T07:21:45.124Z,117.75
2022-11-26T07:24:12.619Z,122.15
2022-11-26T07:26:39.801Z,105.28
2022-11-26T07:29:07.314Z,123.28
2022-11-26T07:31:34.572Z,106.05
2022-11-26T07:34:02.276Z,95.85
2022-11-26T07:36:31.025Z,114.50
2022-11-26T07:39:00.470Z,113.18
2022-11-26T07:41:28.944Z,101.47
2022-11-26T07:43:56.597Z,89.55
2022-11-26T07:46:25.707Z,96.22
2022-11-26T07:48:54.416Z,86.28
2022-11-26T07:51:27.994Z,93.70
2022-11-26T07:53:56.962Z,93.68
2022-11-26T07:56:24.440Z,80.47
2022-11-26T07:58:52.564Z,118.13
2022-11-26T08:01:22.848Z,109.15
2022-11-26T08:03:51.459Z,110.32
2022-11-26T08:06:21.996Z,91.95
2022-11-26T08:08:49.880Z,86.68
2022-11-26T08:11:22.955Z,76.93
2022-11-26T08:13:54.200Z,90.00
2022-11-26T08:16:21.654Z,94.35
2022-11-26T08:18:53.031Z,95.57
2022-11-26T08:21:20.383Z,78.63
2022-11-26T08:23:48.070Z,72.72
2022-11-26T08:26:30.662Z,69.72
2022-11-26T08:29:01.317Z,69.43
2022-11-26T08:31:28.748Z,90.22
2022-11-26T08:33:58.134Z,90.10
2022-11-26T08:36:26.854Z,91.05
2022-11-26T08:38:54.583Z,82.93
2022-11-26T08:41:22.140Z,95.40
2022-11-26T08:44:07.025Z,83.60
2022-11-26T08:46:40.610Z,82.28
2022-11-26T08:49:12.196Z,76.43
2022-11-26T08:51:39.572Z,87.80
2022-11-26T08:54:07.357Z,87.60
2022-11-26T08:56:34.762Z,79.40
2022-11-26T08:59:03.038Z,73.60
2022-11-26T09:01:32.638Z,68.65
2022-11-26T09:04:02.250Z,57.33
2022-11-26T09:06:32.879Z,61.83
2022-11-26T09:09:13.401Z,83.50
2022-11-26T09:11:48.120Z,77.68
2022-11-26T09:14:18.592Z,78.13
2022-11-26T09:16:45.985Z,69.43
2022-11-26T09:19:15.007Z,76.60
2022-11-26T09:21:42.695Z,66.60
2022-11-26T09:24:10.307Z,75.97
2022-11-26T09:26:37.767Z,68.88
2022-11-26T09:29:05.726Z,80.93
2022-11-26T09:31:33.370Z,83.15
2022-11-26T09:34:02.686Z,74.32
2022-11-26T09:36:29.958Z,73.20
2022-11-26T09:38:58.797Z,87.97
2022-11-26T09:41:51.657Z,83.57
2022-11-26T09:44:42.122Z,90.40
2022-11-26T09:47:22.387Z,92.32
2022-11-26T09:49:52.866Z,94.13
2022-11-26T09:52:22.497Z,105.20
2022-11-26T09:54:55.119Z,96.78
2022-11-26T09:57:57.382Z,90.82
2022-11-26T10:00:30.359Z,86.25
2022-11-26T10:02:58.726Z,84.00
2022-11-26T10:05:42.402Z,85.82
2022-11-26T10:08:24.653Z,68.55
2022-11-26T10:10:57.024Z,72.65
2022-11-26T10:14:06.001Z,77.95
2022-11-26T10:16:42.388Z,81.80
2022-11-26T10:19:44.118Z,56.90
2022-11-26T10:22:22.853Z,75.72
2022-11-26T10:24:51.319Z,77.80
2022-11-26T10:27:21.114Z,83.15
2022-11-26T10:30:02.053Z,74.78
2022-11-26T10:32:39.728Z,80.63
2022-11-26T10:35:18.988Z,66.50
2022-11-26T10:37:46.632Z,82.07
2022-11-26T10:40:31.465Z,76.38
2022-11-26T10:43:08.624Z,75.47
2022-11-26T10:45:41.994Z,68.50
2022-11-26T10:48:26.450Z,59.03
2022-11-26T10:51:05.006Z,65.55
2022-11-26T10:53:53.967Z,62.95
2022-11-26T10:56:25.017Z,56.15
2022-11-26T10:58:54.017Z,58.88
2022-11-26T11:01:21.455Z,54.88
2022-11-26T11:04:07.872Z,61.65
2022-11-26T11:06:41.593Z,54.65
2022-11-26T11:09:25.784Z,64.00
2022-11-26T11:12:13.691Z,66.18
2022-11-26T11:14:43.381Z,75.75
2022-11-26T11:17:34.037Z,78.40
2022-11-26T11:20:14.738Z,70.00
2022-11-26T11:22:44.241Z,69.78
2022-11-26T11:25:28.332Z,64.25
2022-11-26T11:28:11.793Z,64.90
2022-11-26T11:30:41.443Z,63.10
2022-11-26T11:33:24.685Z,67.00
2022-11-26T11:35:58.438Z,74.70
2022-11-26T11:38:27.971Z,65.97
2022-11-26T11:40:55.789Z,67.43
2022-11-26T11:43:25.196Z,69.47
2022-11-26T11:46:11.569Z,70.05
2022-11-26T11:49:04.892Z,75.30
2022-11-26T11:51:44.407Z,69.97
2022-11-26T11:54:36.269Z,76.25
2022-11-26T11:57:34.940Z,85.65
2022-11-26T12:00:23.339Z,76.75
2022-11-26T12:03:11.795Z,85.82
2022-11-26T12:06:00.044Z,92.57
2022-11-26T12:08:51.850Z,80.28
2022-11-26T12:11:46.897Z,77.15
2022-11-26T12:14:32.340Z,82.53
2022-11-26T12:17:12.131Z,84.40
2022-11-26T12:19:45.190Z,81.80
2022-11-26T12:22:27.044Z,83.82
2022-11-26T12:25:35.132Z,82.40
2022-11-26T12:28:15.330Z,89.78
2022-11-26T12:31:09.592Z,76.10
2022-11-26T12:33:44.802Z,80.32
2022-11-26T12:36:26.962Z,82.90
2022-11-26T12:38:59.332Z,87.90
2022-11-26T12:41:55.935Z,88.30
2022-11-26T12:44:33.956Z,75.22
2022-11-26T12:47:19.540Z,83.57
2022-11-26T12:50:07.938Z,89.07
2022-11-26T12:53:13.801Z,85.70
2022-11-26T12:55:56.619Z,98.22
2022-11-26T12:58:34.914Z,91.40
2022-11-26T13:01:02.144Z,105.47
2022-11-26T13:03:33.334Z,90.97
2022-11-26T13:06:08.238Z,91.38
2022-11-26T13:09:15.374Z,82.22
2022-11-26T13:12:13.130Z,74.20
2022-11-26T13:17:27.168Z,81.78
2022-11-26T13:20:17.595Z,73.43
2022-11-26T13:22:55.594Z,77.05
2022-11-26T13:25:54.275Z,79.97
2022-11-26T13:28:40.245Z,67.68
2022-11-26T13:31:41.194Z,79.97
2022-11-26T13:34:42.552Z,78.03
2022-11-26T13:37:34.730Z,86.40
2022-11-26T13:40:26.462Z,74.85
2022-11-26T13:43:24.670Z,74.53
2022-11-26T13:46:04.887Z,72.00
2022-11-26T13:48:54.151Z,65.22
2022-11-26T13:51:37.354Z,68.38
2022-11-26T13:54:10.940Z,64.38
2022-11-26T13:56:39.898Z,61.47
2022-11-26T13:59:28.123Z,58.70
2022-11-26T14:01:56.418Z,67.18
2022-11-26T14:04:23.925Z,67.60
2022-11-26T14:07:06.127Z,71.63
2022-11-26T14:09:42.651Z,76.50
2022-11-26T14:12:13.919Z,72.30
2022-11-26T14:14:43.093Z,68.03
2022-11-26T14:17:14.827Z,68.00
2022-11-26T14:19:45.028Z,61.95
2022-11-26T14:22:21.295Z,56.25
2022-11-26T14:24:51.498Z,61.22
2022-11-26T14:27:20.063Z,61.92
2022-11-26T14:30:08.593Z,67.07
2022-11-26T14:32:53.203Z,68.07
2022-11-26T14:35:38.364Z,62.35
2022-11-26T14:38:21.570Z,66.88
2022-11-26T14:40:57.862Z,82.88
2022-11-26T14:43:25.205Z,79.47
2022-11-26T14:46:31.981Z,86.03
2022-11-26T14:49:00.552Z,87.05
2022-11-26T14:51:28.727Z,91.82
2022-11-26T14:53:56.943Z,91.80
2022-11-26T14:56:25.865Z,93.65
2022-11-26T14:58:55.734Z,101.43
2022-11-26T15:01:26.428Z,92.03
2022-11-26T15:04:01.066Z,90.93
2022-11-26T15:06:30.089Z,90.50
2022-11-26T15:09:24.490Z,93.47
2022-11-26T15:12:04.875Z,99.80
2022-11-26T15:14:57.286Z,94.63
2022-11-26T15:17:27.661Z,89.38
2022-11-26T15:19:58.556Z,86.95
2022-11-26T15:22:37.720Z,94.45
2022-11-26T15:25:10.922Z,98.95
2022-11-26T15:27:41.006Z,80.90
2022-11-26T15:30:26.344Z,84.15
2022-11-26T15:33:00.839Z,83.70
2022-11-26T15:35:29.233Z,80.63
2022-11-26T15:37:57.652Z,90.65
2022-11-26T15:40:26.642Z,87.90
2022-11-26T15:42:59.036Z,98.45
2022-11-26T15:45:40.491Z,85.43
2022-11-26T15:48:29.823Z,83.38
2022-11-26T15:51:21.896Z,77.70
2022-11-26T15:53:50.623Z,83.05
2022-11-26T15:56:30.793Z,73.78
2022-11-26T15:59:02.939Z,75.68
2022-11-26T16:01:36.819Z,82.50
2022-11-26T16:04:27.170Z,84.65
2022-11-26T16:07:12.747Z,80.18
2022-11-26T16:09:40.380Z,85.05
2022-11-26T16:12:24.883Z,81.82
2022-11-26T16:14:52.393Z,63.25
2022-11-26T16:17:20.959Z,76.85
2022-11-26T16:19:54.696Z,70.43
2022-11-26T16:22:28.374Z,74.35
2022-11-26T16:25:04.701Z,76.55
2022-11-26T16:27:33.727Z,71.43
2022-11-26T16:30:15.048Z,68.93
2022-11-26T16:32:42.224Z,75.72
2022-11-26T16:35:37.661Z,80.05
2022-11-26T16:37:56.987Z,67.10
2022-11-26T16:40:25.073Z,71.95
2022-11-26T16:42:52.359Z,78.28
2022-11-26T16:45:20.248Z,74.55
2022-11-26T16:47:53.523Z,72.35
2022-11-26T16:50:24.604Z,70.60
2022-11-26T16:52:52.633Z,80.95
2022-11-26T16:55:26.318Z,73.22
2022-11-26T16:57:59.878Z,71.75
2022-11-26T17:00:28.194Z,73.88
2022-11-26T17:02:55.541Z,73.18
2022-11-26T17:05:24.702Z,78.80
2022-11-26T17:07:59.562Z,84.88
2022-11-26T17:10:29.500Z,88.82
2022-11-26T17:12:57.783Z,85.57
2022-11-26T17:15:25.427Z,90.95
2022-11-26T17:17:56.298Z,94.10
2022-11-26T17:20:25.652Z,86.18
2022-11-26T17:22:53.177Z,82.10
2022-11-26T17:25:24.199Z,87.22
2022-11-26T17:27:51.514Z,116.00
2022-11-26T17:30:24.177Z,127.80
2022-11-26T17:32:51.644Z,71.10
2022-11-26T17:35:19.390Z,60.95
2022-11-26T17:37:46.714Z,68.10
2022-11-26T17:40:20.299Z,68.07
2022-11-26T17:42:47.924Z,67.10
2022-11-26T17:45:16.432Z,82.70
2022-11-26T17:47:44.360Z,78.28
2022-11-26T17:50:24.897Z,70.10
2022-11-26T17:52:53.268Z,72.38
2022-11-26T17:55:23.169Z,59.05
2022-11-26T17:57:51.022Z,75.30
2022-11-26T18:00:24.234Z,66.75
2022-11-26T18:02:51.642Z,64.22
2022-11-26T18:05:20.211Z,71.60
2022-11-26T18:07:47.676Z,64.85
2022-11-26T18:10:18.014Z,65.75
2022-11-26T18:12:45.585Z,64.78
2022-11-26T18:15:18.433Z,61.95
2022-11-26T18:17:52.986Z,58.08
2022-11-26T18:20:26.335Z,77.28
2022-11-26T18:22:55.888Z,85.88
2022-11-26T18:25:23.879Z,84.50
2022-11-26T18:27:52.719Z,107.45
2022-11-26T18:30:20.808Z,91.55
2022-11-26T18:32:48.553Z,76.55
2022-11-26T18:35:16.639Z,100.68
2022-11-26T18:37:44.097Z,111.50
2022-11-26T18:40:14.840Z,128.27
2022-11-26T18:42:42.406Z,128.63
2022-11-26T18:45:12.200Z,72.68
2022-11-26T18:47:39.500Z,55.28
2022-11-26T18:50:07.642Z,73.90
2022-11-26T18:52:35.154Z,58.55
2022-11-26T18:55:05.409Z,64.20
2022-11-26T18:57:32.622Z,51.15
2022-11-26T19:00:00.035Z,108.78
2022-11-26T19:02:27.374Z,55.85
2022-11-26T19:04:54.897Z,48.83
2022-11-26T19:07:22.147Z,50.33
2022-11-26T19:09:49.788Z,57.60
2022-11-26T19:12:16.966Z,43.08
2022-11-26T19:14:45.800Z,49.67
2022-11-26T19:17:13.150Z,87.50
2022-11-26T19:19:41.044Z,58.20
2022-11-26T19:22:08.777Z,81.10
2022-11-26T19:24:36.338Z,65.93
2022-11-26T19:27:03.486Z,59.55
2022-11-26T19:29:30.980Z,57.17
2022-11-26T19:31:58.186Z,52.10
2022-11-26T19:34:25.668Z,56.13
2022-11-26T19:36:56.680Z,48.75
2022-11-26T19:39:24.523Z,42.47
2022-11-26T19:41:51.826Z,42.92
2022-11-26T19:44:19.516Z,39.45
2022-11-26T19:46:48.263Z,43.10
2022-11-26T19:49:16.042Z,47.10
2022-11-26T19:51:43.414Z,35.80
2022-11-26T19:54:10.949Z,38.45
2022-11-26T19:56:38.114Z,41.70
2022-11-26T19:59:05.671Z,33.55
2022-11-26T20:01:34.221Z,38.65
2022-11-26T20:04:04.514Z,32.78
2022-11-26T20:06:34.069Z,38.45
2022-11-26T20:09:04.254Z,37.20
2022-11-26T20:11:39.819Z,37.55
2022-11-26T20:14:11.503Z,37.47
2022-11-26T20:16:41.633Z,30.13
2022-11-26T20:19:09.964Z,29.50
2022-11-26T20:21:37.955Z,31.15
2022-11-26T20:24:09.681Z,34.42
2022-11-26T20:26:40.322Z,32.28
2022-11-26T20:29:13.839Z,33.00
2022-11-26T20:31:47.646Z,35.08
2022-11-26T20:34:20.810Z,37.50
2022-11-26T20:36:49.181Z,37.95
2022-11-26T20:39:19.252Z,46.97
2022-11-26T20:41:48.007Z,53.33
2022-11-26T20:44:15.396Z,47.38
2022-11-26T20:46:43.355Z,48.70
2022-11-26T20:49:11.747Z,44.58
2022-11-26T20:51:39.531Z,44.92
2022-11-26T20:54:06.861Z,41.47
2022-11-26T20:56:34.347Z,44.15
2022-11-26T20:59:01.727Z,54.25
2022-11-26T21:01:29.817Z,49.97
2022-11-26T21:03:58.208Z,54.38
2022-11-26T21:06:30.331Z,46.75
2022-11-26T21:09:03.868Z,55.80
2022-11-26T21:11:31.653Z,47.45
2022-11-26T21:14:00.085Z,42.10
2022-11-26T21:16:28.899Z,41.58
2022-11-26T21:18:56.751Z,43.90
2022-11-26T21:21:25.688Z,41.63
2022-11-26T21:23:54.042Z,37.33
2022-11-26T21:26:24.562Z,45.53
2022-11-26T21:28:53.266Z,41.90
2022-11-26T21:31:21.429Z,40.65
2022-11-26T21:33:55.135Z,40.03
2022-11-26T21:36:24.041Z,33.60
2022-11-26T21:38:51.568Z,31.95
2022-11-26T21:41:20.282Z,29.90
2022-11-26T21:43:48.477Z,33.20
2022-11-26T21:46:18.953Z,30.42
2022-11-26T21:48:46.383Z,35.92
2022-11-26T21:51:17.108Z,31.00
2022-11-26T21:53:44.875Z,33.28
2022-11-26T21:56:23.862Z,39.63
2022-11-26T21:58:51.706Z,34.35
2022-11-26T22:01:21.201Z,34.33
2022-11-26T22:03:50.691Z,37.20
2022-11-26T22:06:20.322Z,30.33
2022-11-26T22:08:48.074Z,32.38
2022-11-26T22:11:18.688Z,35.72
2022-11-26T22:13:46.154Z,29.23
2022-11-26T22:16:16.472Z,29.52
2022-11-26T22:18:45.530Z,28.75
2022-11-26T22:21:25.153Z,27.88
2022-11-26T22:23:53.067Z,30.13
2022-11-26T22:26:21.528Z,30.88
2022-11-26T22:28:49.804Z,36.63
2022-11-26T22:31:26.817Z,48.22
2022-11-26T22:33:56.673Z,38.47
2022-11-26T22:36:24.645Z,51.60
2022-11-26T22:38:52.593Z,40.38
2022-11-26T22:41:22.933Z,38.47
2022-11-26T22:43:50.336Z,40.78
2022-11-26T22:46:20.469Z,45.08
2022-11-26T22:48:52.645Z,35.58
2022-11-26T22:51:20.940Z,37.83
2022-11-26T22:53:52.284Z,37.15
2022-11-26T22:56:20.409Z,36.22
2022-11-26T22:58:48.387Z,35.10
2022-11-26T23:01:20.253Z,30.92
2022-11-26T23:03:48.192Z,40.75
2022-11-26T23:06:17.877Z,46.75
2022-11-26T23:08:45.715Z,51.90
2022-11-26T23:11:20.941Z,66.45
2022-11-26T23:13:50.235Z,58.38
2022-11-26T23:16:20.461Z,62.97
2022-11-26T23:18:48.186Z,75.05
2022-11-26T23:21:18.385Z,71.18
2022-11-26T23:23:46.149Z,76.57
2022-11-26T23:26:15.651Z,78.65
2022-11-26T23:28:43.069Z,74.55
2022-11-26T23:31:26.145Z,79.35
2022-11-26T23:33:53.643Z,69.18
2022-11-26T23:36:22.362Z,60.63
2022-11-26T23:38:49.875Z,62.60
2022-11-26T23:41:17.473Z,65.25
2022-11-26T23:43:45.594Z,59.85
2022-11-26T23:46:25.176Z,59.97
2022-11-26T23:48:53.234Z,55.47
2022-11-26T23:51:24.613Z,46.88
2022-11-26T23:53:52.847Z,50.45
2022-11-26T23:56:24.651Z,55.90
2022-11-26T23:58:53.586Z,46.30
